createdAt,value
2023-04-30T00:00:13.042Z,0.00
2023-04-30T00:00:34.765Z,0.00
2023-04-30T00:01:01.598Z,0.00
2023-04-30T00:01:32.572Z,0.00
2023-04-30T00:02:04.277Z,0.00
2023-04-30T00:02:34.849Z,0.00
2023-04-30T00:02:52.178Z,0.00
2023-04-30T00:03:25.046Z,0.00
2023-04-30T00:03:42.745Z,0.00
2023-04-30T00:04:12.237Z,0.00
2023-04-30T00:04:34.751Z,0.00
2023-04-30T00:05:01.388Z,0.00
2023-04-30T00:05:33.166Z,0.00
2023-04-30T00:06:04.346Z,0.00
2023-04-30T00:06:34.884Z,0.00
2023-04-30T00:06:52.161Z,0.00
2023-04-30T00:07:24.965Z,0.00
2023-04-30T00:07:42.068Z,0.00
2023-04-30T00:08:12.137Z,0.00
2023-04-30T00:08:34.591Z,0.00
2023-04-30T00:09:01.347Z,0.00
2023-04-30T00:09:32.523Z,0.00
2023-04-30T00:10:04.460Z,0.00
2023-04-30T00:10:34.632Z,0.00
2023-04-30T00:10:52.322Z,0.00
2023-04-30T00:11:24.953Z,0.00
2023-04-30T00:11:42.043Z,0.00
2023-04-30T00:12:12.171Z,0.00
2023-04-30T00:12:34.697Z,0.00
2023-04-30T00:13:01.503Z,0.00
2023-04-30T00:13:32.143Z,0.00
2023-04-30T00:14:04.201Z,0.00
2023-04-30T00:14:34.682Z,0.00
2023-04-30T00:14:52.139Z,0.00
2023-04-30T00:15:25.238Z,0.00
2023-04-30T00:15:42.089Z,0.00
2023-04-30T00:16:12.186Z,0.00
2023-04-30T00:16:35.297Z,0.00
2023-04-30T00:17:01.488Z,0.00
2023-04-30T00:17:32.776Z,0.00
2023-04-30T00:18:04.220Z,0.00
2023-04-30T00:18:35.052Z,0.00
2023-04-30T00:18:52.106Z,0.00
2023-04-30T00:19:24.877Z,0.00
2023-04-30T00:19:42.186Z,0.00
2023-04-30T00:20:12.446Z,0.00
2023-04-30T00:20:34.687Z,0.00
2023-04-30T00:21:01.367Z,0.00
2023-04-30T00:21:32.518Z,0.00
2023-04-30T00:22:05.620Z,0.00
2023-04-30T00:22:34.645Z,0.00
2023-04-30T00:22:52.224Z,0.00
2023-04-30T00:23:24.369Z,0.00
2023-04-30T00:23:41.530Z,0.00
2023-04-30T00:24:12.984Z,0.00
2023-04-30T00:24:34.620Z,0.00
2023-04-30T00:25:00.610Z,0.00
2023-04-30T00:25:33.368Z,0.00
2023-04-30T00:26:04.223Z,0.00
2023-04-30T00:26:34.610Z,0.00
2023-04-30T00:26:53.056Z,0.00
2023-04-30T00:27:24.209Z,0.00
2023-04-30T00:27:41.363Z,0.00
2023-04-30T00:28:12.938Z,0.00
2023-04-30T00:28:34.691Z,0.00
2023-04-30T00:29:00.651Z,0.00
2023-04-30T00:29:32.947Z,0.00
2023-04-30T00:30:04.890Z,0.00
2023-04-30T00:30:34.701Z,0.00
2023-04-30T00:30:53.318Z,0.00
2023-04-30T00:31:24.560Z,0.00
2023-04-30T00:31:41.650Z,0.00
2023-04-30T00:32:13.362Z,0.00
2023-04-30T00:32:34.712Z,0.00
2023-04-30T00:33:00.524Z,0.00
2023-04-30T00:33:33.582Z,0.00
2023-04-30T00:34:04.596Z,0.00
2023-04-30T00:34:35.570Z,0.00
2023-04-30T00:34:52.042Z,0.00
2023-04-30T00:35:24.480Z,0.00
2023-04-30T00:35:42.282Z,0.00
2023-04-30T00:36:12.537Z,0.00
2023-04-30T00:36:34.701Z,0.00
2023-04-30T00:37:01.392Z,0.00
2023-04-30T00:37:32.655Z,0.00
2023-04-30T00:38:04.974Z,0.00
2023-04-30T00:38:34.650Z,0.00
2023-04-30T00:38:52.232Z,0.00
2023-04-30T00:39:24.288Z,0.00
2023-04-30T00:39:41.400Z,0.00
2023-04-30T00:40:13.217Z,0.00
2023-04-30T00:40:34.639Z,0.00
2023-04-30T00:41:00.539Z,0.00
2023-04-30T00:41:32.616Z,0.00
2023-04-30T00:42:04.403Z,0.00
2023-04-30T00:42:35.365Z,0.00
2023-04-30T00:42:52.240Z,0.00
2023-04-30T00:43:24.879Z,0.00
2023-04-30T00:43:41.994Z,0.00
2023-04-30T00:44:12.304Z,0.00
2023-04-30T00:44:35.297Z,0.00
2023-04-30T00:45:02.036Z,0.00
2023-04-30T00:45:32.564Z,0.00
2023-04-30T00:46:04.241Z,0.00
2023-04-30T00:46:34.640Z,0.00
2023-04-30T00:46:52.131Z,0.00
2023-04-30T00:47:25.024Z,0.00
2023-04-30T00:47:42.144Z,0.00
2023-04-30T00:48:12.363Z,0.00
2023-04-30T00:48:34.726Z,0.00
2023-04-30T00:49:00.422Z,0.00
2023-04-30T00:49:33.081Z,0.00
2023-04-30T00:50:05.320Z,0.00
2023-04-30T00:50:34.641Z,0.00
2023-04-30T00:50:53.308Z,0.00
2023-04-30T00:51:24.237Z,0.00
2023-04-30T00:51:41.381Z,0.00
2023-04-30T00:52:13.006Z,0.00
2023-04-30T00:52:34.671Z,0.00
2023-04-30T00:53:00.372Z,0.00
2023-04-30T00:53:32.957Z,0.00
2023-04-30T00:54:04.272Z,0.00
2023-04-30T00:54:34.721Z,0.00
2023-04-30T00:54:53.064Z,0.00
2023-04-30T00:55:24.423Z,0.00
2023-04-30T00:55:41.427Z,0.00
2023-04-30T00:56:12.974Z,0.00
2023-04-30T00:56:34.606Z,0.00
2023-04-30T00:57:00.452Z,0.00
2023-04-30T00:57:32.946Z,0.00
2023-04-30T00:58:04.250Z,0.00
2023-04-30T00:58:36.933Z,0.00
2023-04-30T00:59:08.256Z,0.00
2023-04-30T00:59:34.673Z,0.00
2023-04-30T00:59:56.995Z,0.00
2023-04-30T01:00:28.372Z,0.00
2023-04-30T01:01:01.367Z,0.00
2023-04-30T01:01:32.655Z,0.00
2023-04-30T01:02:04.991Z,0.00
2023-04-30T01:02:34.845Z,0.00
2023-04-30T01:03:41.135Z,0.00
2023-04-30T01:04:47.371Z,0.00
2023-04-30T01:05:53.872Z,0.00
2023-04-30T01:07:00.146Z,0.00
2023-04-30T01:08:06.339Z,0.00
2023-04-30T01:09:12.529Z,0.00
2023-04-30T01:10:18.839Z,0.00
2023-04-30T01:11:25.012Z,0.00
2023-04-30T01:12:31.189Z,0.00
2023-04-30T01:13:37.398Z,0.00
2023-04-30T01:14:43.567Z,0.00
2023-04-30T01:15:49.988Z,0.00
2023-04-30T01:16:56.217Z,0.00
2023-04-30T01:18:02.487Z,0.00
2023-04-30T01:19:08.754Z,0.00
2023-04-30T01:20:15.161Z,0.00
2023-04-30T01:21:21.334Z,0.00
2023-04-30T01:22:27.525Z,0.00
2023-04-30T01:23:33.715Z,0.00
2023-04-30T01:23:37.046Z,0.00
2023-04-30T01:23:57.124Z,0.00
2023-04-30T01:24:28.129Z,0.00
2023-04-30T01:25:00.497Z,0.00
2023-04-30T01:25:32.636Z,0.00
2023-04-30T01:26:04.260Z,0.00
2023-04-30T01:26:34.683Z,0.00
2023-04-30T01:26:52.746Z,0.00
2023-04-30T01:27:24.412Z,0.00
2023-04-30T01:27:41.422Z,0.00
2023-04-30T01:28:12.648Z,0.00
2023-04-30T01:28:34.696Z,0.00
2023-04-30T01:29:00.216Z,0.00
2023-04-30T01:29:32.561Z,0.00
2023-04-30T01:30:04.569Z,0.00
2023-04-30T01:30:34.754Z,0.00
2023-04-30T01:30:52.361Z,0.00
2023-04-30T01:31:25.252Z,0.00
2023-04-30T01:31:43.155Z,0.00
2023-04-30T01:32:12.210Z,0.00
2023-04-30T01:32:34.635Z,0.00
2023-04-30T01:33:00.286Z,0.00
2023-04-30T01:33:33.263Z,0.00
2023-04-30T01:34:04.908Z,0.00
2023-04-30T01:34:35.377Z,0.00
2023-04-30T01:35:07.774Z,0.00
2023-04-30T01:35:24.165Z,0.00
2023-04-30T01:35:42.217Z,0.00
2023-04-30T01:36:12.163Z,0.00
2023-04-30T01:36:34.680Z,0.00
2023-04-30T01:37:00.195Z,0.00
2023-04-30T01:37:33.375Z,0.00
2023-04-30T01:38:05.059Z,0.00
2023-04-30T01:38:34.666Z,0.00
2023-04-30T01:38:52.156Z,0.00
2023-04-30T01:39:24.187Z,0.00
2023-04-30T01:39:41.364Z,0.00
2023-04-30T01:40:13.370Z,0.00
2023-04-30T01:40:34.801Z,0.00
2023-04-30T01:41:00.316Z,0.00
2023-04-30T01:41:33.518Z,0.00
2023-04-30T01:42:04.167Z,0.00
2023-04-30T01:42:34.594Z,0.00
2023-04-30T01:42:53.295Z,0.00
2023-04-30T01:43:24.178Z,0.00
2023-04-30T01:43:41.350Z,0.00
2023-04-30T01:44:12.398Z,0.00
2023-04-30T01:44:34.625Z,0.00
2023-04-30T01:45:02.252Z,0.00
2023-04-30T01:45:32.260Z,0.00
2023-04-30T01:46:04.400Z,0.00
2023-04-30T01:46:35.041Z,0.00
2023-04-30T01:46:52.156Z,0.00
2023-04-30T01:47:26.102Z,0.00
2023-04-30T01:47:44.054Z,0.00
2023-04-30T01:48:12.184Z,0.00
2023-04-30T01:48:34.823Z,0.00
2023-04-30T01:49:00.148Z,0.00
2023-04-30T01:49:33.469Z,0.00
2023-04-30T01:50:04.453Z,0.00
2023-04-30T01:50:40.293Z,0.00
2023-04-30T01:51:08.182Z,0.00
2023-04-30T01:51:34.618Z,0.00
2023-04-30T01:51:57.062Z,0.00
2023-04-30T01:52:28.151Z,0.00
2023-04-30T01:53:00.190Z,0.00
2023-04-30T01:53:32.552Z,0.00
2023-04-30T01:54:04.268Z,0.00
2023-04-30T01:54:34.878Z,0.00
2023-04-30T01:55:08.354Z,0.00
2023-04-30T01:55:34.796Z,0.00
2023-04-30T01:55:56.370Z,0.00
2023-04-30T01:56:29.095Z,0.00
2023-04-30T01:57:00.304Z,0.00
2023-04-30T01:57:32.922Z,0.00
2023-04-30T01:58:04.256Z,0.00
2023-04-30T01:58:34.605Z,0.00
2023-04-30T01:58:53.080Z,0.00
2023-04-30T01:59:27.448Z,0.00
2023-04-30T01:59:56.547Z,0.00
2023-04-30T02:00:28.368Z,0.00
2023-04-30T02:01:00.321Z,0.00
2023-04-30T02:01:32.308Z,0.00
2023-04-30T02:02:04.328Z,0.00
2023-04-30T02:02:35.423Z,0.00
2023-04-30T02:02:52.428Z,0.00
2023-04-30T02:03:25.588Z,0.00
2023-04-30T02:03:42.707Z,0.00
2023-04-30T02:04:12.213Z,0.00
2023-04-30T02:04:34.636Z,0.00
2023-04-30T02:05:00.501Z,0.00
2023-04-30T02:05:34.309Z,0.00
2023-04-30T02:06:04.259Z,0.00
2023-04-30T02:06:37.116Z,0.00
2023-04-30T02:07:08.184Z,0.00
2023-04-30T02:07:35.136Z,0.00
2023-04-30T02:07:56.139Z,0.00
2023-04-30T02:08:28.180Z,0.00
2023-04-30T02:09:02.298Z,0.00
2023-04-30T02:09:32.512Z,0.00
2023-04-30T02:10:06.156Z,0.00
2023-04-30T02:10:34.693Z,0.00
2023-04-30T02:10:52.826Z,0.00
2023-04-30T02:11:35.584Z,0.00
2023-04-30T02:11:56.162Z,0.00
2023-04-30T02:12:28.185Z,0.00
2023-04-30T02:13:00.334Z,0.00
2023-04-30T02:13:33.510Z,0.00
2023-04-30T02:14:04.264Z,0.00
2023-04-30T02:14:34.607Z,0.00
2023-04-30T02:14:52.316Z,0.00
2023-04-30T02:15:25.347Z,0.00
2023-04-30T02:15:42.442Z,0.00
2023-04-30T02:16:12.222Z,0.00
2023-04-30T02:16:35.096Z,0.00
2023-04-30T02:17:00.232Z,0.00
2023-04-30T02:17:33.227Z,0.00
2023-04-30T02:18:04.365Z,0.00
2023-04-30T02:18:34.668Z,0.00
2023-04-30T02:18:53.296Z,0.00
2023-04-30T02:19:24.343Z,0.00
2023-04-30T02:19:41.430Z,0.00
2023-04-30T02:20:13.304Z,0.00
2023-04-30T02:20:34.799Z,0.00
2023-04-30T02:21:00.311Z,0.00
2023-04-30T02:21:32.645Z,0.00
2023-04-30T02:22:04.514Z,0.00
2023-04-30T02:22:36.702Z,0.00
2023-04-30T02:23:09.230Z,0.00
2023-04-30T02:23:35.129Z,0.00
2023-04-30T02:23:56.270Z,0.00
2023-04-30T02:24:29.014Z,0.00
2023-04-30T02:25:00.616Z,0.00
2023-04-30T02:25:35.052Z,0.00
2023-04-30T02:26:04.226Z,0.00
2023-04-30T02:26:36.248Z,0.00
2023-04-30T02:27:08.161Z,0.00
2023-04-30T02:27:34.609Z,0.00
2023-04-30T02:27:56.177Z,0.00
2023-04-30T02:28:28.134Z,0.00
2023-04-30T02:29:01.755Z,0.00
2023-04-30T02:29:32.684Z,0.00
2023-04-30T02:30:05.415Z,0.00
2023-04-30T02:30:35.373Z,0.00
2023-04-30T02:30:52.427Z,0.00
2023-04-30T02:31:24.280Z,0.00
2023-04-30T02:31:41.419Z,0.00
2023-04-30T02:32:13.566Z,0.00
2023-04-30T02:32:35.065Z,0.00
2023-04-30T02:33:00.419Z,0.00
2023-04-30T02:33:32.601Z,0.00
2023-04-30T02:34:04.644Z,0.00
2023-04-30T02:34:34.648Z,0.00
2023-04-30T02:34:52.176Z,0.00
2023-04-30T02:35:25.397Z,0.00
2023-04-30T02:35:43.300Z,0.00
2023-04-30T02:36:12.251Z,0.00
2023-04-30T02:36:34.639Z,0.00
2023-04-30T02:37:00.195Z,0.00
2023-04-30T02:37:33.254Z,0.00
2023-04-30T02:38:04.190Z,0.00
2023-04-30T02:38:35.491Z,0.00
2023-04-30T02:38:52.196Z,0.00
2023-04-30T02:39:24.253Z,0.00
2023-04-30T02:39:41.754Z,0.00
2023-04-30T02:40:14.331Z,0.00
2023-04-30T02:40:34.667Z,0.00
2023-04-30T02:41:00.193Z,0.00
2023-04-30T02:41:32.731Z,0.00
2023-04-30T02:42:04.277Z,0.00
2023-04-30T02:42:34.669Z,0.00
2023-04-30T02:42:52.187Z,0.00
2023-04-30T02:43:25.205Z,0.00
2023-04-30T02:43:42.234Z,0.00
2023-04-30T02:44:12.305Z,0.00
2023-04-30T02:44:34.636Z,0.00
2023-04-30T02:45:01.607Z,0.00
2023-04-30T02:45:32.299Z,0.00
2023-04-30T02:46:05.334Z,0.00
2023-04-30T02:46:34.693Z,0.00
2023-04-30T02:46:52.247Z,0.00
2023-04-30T02:47:25.148Z,0.00
2023-04-30T02:47:42.268Z,0.00
2023-04-30T02:48:12.293Z,0.00
2023-04-30T02:48:34.652Z,0.00
2023-04-30T02:49:00.174Z,0.00
2023-04-30T02:49:33.194Z,0.00
2023-04-30T02:50:04.606Z,0.00
2023-04-30T02:50:36.958Z,0.00
2023-04-30T02:51:08.213Z,0.00
2023-04-30T02:51:34.686Z,0.00
2023-04-30T02:51:56.301Z,0.00
2023-04-30T02:52:28.210Z,0.00
2023-04-30T02:53:01.519Z,0.00
2023-04-30T02:53:32.546Z,0.00
2023-04-30T02:54:04.335Z,0.00
2023-04-30T02:54:34.603Z,0.00
2023-04-30T02:54:52.215Z,0.00
2023-04-30T02:55:25.670Z,0.00
2023-04-30T02:55:43.676Z,0.00
2023-04-30T02:56:12.207Z,0.00
2023-04-30T02:56:34.652Z,0.00
2023-04-30T02:57:00.186Z,0.00
2023-04-30T02:57:33.324Z,0.00
2023-04-30T02:58:04.214Z,0.00
2023-04-30T02:58:36.968Z,0.00
2023-04-30T02:59:08.213Z,0.00
2023-04-30T02:59:35.173Z,0.00
2023-04-30T02:59:56.580Z,0.00
2023-04-30T03:00:28.394Z,0.00
2023-04-30T03:01:01.665Z,0.00
2023-04-30T03:01:32.397Z,0.00
2023-04-30T03:02:05.233Z,0.00
2023-04-30T03:02:34.732Z,0.00
2023-04-30T03:02:52.364Z,0.00
2023-04-30T03:03:25.406Z,0.00
2023-04-30T03:03:42.432Z,0.00
2023-04-30T03:04:12.179Z,0.00
2023-04-30T03:04:34.713Z,0.00
2023-04-30T03:05:01.751Z,0.00
2023-04-30T03:05:32.301Z,0.00
2023-04-30T03:06:05.176Z,0.00
2023-04-30T03:06:34.714Z,0.00
2023-04-30T03:06:52.218Z,0.00
2023-04-30T03:07:24.237Z,0.00
2023-04-30T03:07:41.415Z,0.00
2023-04-30T03:08:13.227Z,0.00
2023-04-30T03:08:34.607Z,0.00
2023-04-30T03:09:00.220Z,0.00
2023-04-30T03:09:32.966Z,0.00
2023-04-30T03:10:04.451Z,0.00
2023-04-30T03:10:34.694Z,0.00
2023-04-30T03:10:52.365Z,0.00
2023-04-30T03:11:25.208Z,0.00
2023-04-30T03:11:42.367Z,0.00
2023-04-30T03:12:12.173Z,0.00
2023-04-30T03:12:34.595Z,0.00
2023-04-30T03:13:01.476Z,0.00
2023-04-30T03:13:32.877Z,0.00
2023-04-30T03:14:04.326Z,0.00
2023-04-30T03:14:34.759Z,0.00
2023-04-30T03:14:52.191Z,0.00
2023-04-30T03:15:25.464Z,0.00
2023-04-30T03:15:42.378Z,0.00
2023-04-30T03:16:12.243Z,0.00
2023-04-30T03:16:34.721Z,0.00
2023-04-30T03:17:01.537Z,0.00
2023-04-30T03:17:33.158Z,0.00
2023-04-30T03:18:04.330Z,0.00
2023-04-30T03:18:34.755Z,0.00
2023-04-30T03:18:52.292Z,0.00
2023-04-30T03:19:25.472Z,0.00
2023-04-30T03:19:43.905Z,0.00
2023-04-30T03:20:12.351Z,0.00
2023-04-30T03:20:34.715Z,0.00
2023-04-30T03:21:00.240Z,0.00
2023-04-30T03:21:32.655Z,0.00
2023-04-30T03:22:05.239Z,0.00
2023-04-30T03:22:34.699Z,0.00
2023-04-30T03:22:52.239Z,0.00
2023-04-30T03:23:24.247Z,0.00
2023-04-30T03:23:41.657Z,0.00
2023-04-30T03:24:13.956Z,0.00
2023-04-30T03:24:34.632Z,0.00
2023-04-30T03:25:00.303Z,0.00
2023-04-30T03:25:32.878Z,0.00
2023-04-30T03:26:04.176Z,0.00
2023-04-30T03:26:34.628Z,0.00
2023-04-30T03:26:52.195Z,0.00
2023-04-30T03:27:25.331Z,0.00
2023-04-30T03:27:42.300Z,0.00
2023-04-30T03:28:12.252Z,0.00
2023-04-30T03:28:34.759Z,0.00
2023-04-30T03:29:00.180Z,0.00
2023-04-30T03:29:33.319Z,0.00
2023-04-30T03:30:04.474Z,0.00
2023-04-30T03:30:36.838Z,0.00
2023-04-30T03:31:08.294Z,0.00
2023-04-30T03:31:35.286Z,0.00
2023-04-30T03:31:56.609Z,0.00
2023-04-30T03:32:28.235Z,0.00
2023-04-30T03:33:01.727Z,0.00
2023-04-30T03:33:32.477Z,0.00
2023-04-30T03:34:04.969Z,0.00
2023-04-30T03:34:34.634Z,0.00
2023-04-30T03:34:52.270Z,0.00
2023-04-30T03:35:25.306Z,0.00
2023-04-30T03:35:42.137Z,0.00
2023-04-30T03:36:13.325Z,0.00
2023-04-30T03:36:34.631Z,0.00
2023-04-30T03:37:00.246Z,0.00
2023-04-30T03:37:33.939Z,0.00
2023-04-30T03:38:04.385Z,0.00
2023-04-30T03:38:35.641Z,0.00
2023-04-30T03:38:52.119Z,0.00
2023-04-30T03:39:24.344Z,0.00
2023-04-30T03:39:41.754Z,0.00
2023-04-30T03:40:13.399Z,0.00
2023-04-30T03:40:35.571Z,0.00
2023-04-30T03:41:00.498Z,0.00
2023-04-30T03:41:33.156Z,0.00
2023-04-30T03:42:04.286Z,0.00
2023-04-30T03:42:39.811Z,0.00
2023-04-30T03:43:08.191Z,0.00
2023-04-30T03:43:35.344Z,0.00
2023-04-30T03:43:56.200Z,0.00
2023-04-30T03:44:29.793Z,0.00
2023-04-30T03:45:00.644Z,0.00
2023-04-30T03:45:32.756Z,0.00
2023-04-30T03:46:04.281Z,0.00
2023-04-30T03:46:35.727Z,0.00
2023-04-30T03:46:52.092Z,0.00
2023-04-30T03:47:24.297Z,0.00
2023-04-30T03:47:41.470Z,0.00
2023-04-30T03:48:14.106Z,0.00
2023-04-30T03:48:34.734Z,0.00
2023-04-30T03:49:00.235Z,0.00
2023-04-30T03:49:33.307Z,0.00
2023-04-30T03:50:04.839Z,0.00
2023-04-30T03:50:34.837Z,0.00
2023-04-30T03:50:53.441Z,0.00
2023-04-30T03:51:24.375Z,0.00
2023-04-30T03:51:41.442Z,0.00
2023-04-30T03:52:12.222Z,0.00
2023-04-30T03:52:34.765Z,0.00
2023-04-30T03:53:01.470Z,0.00
2023-04-30T03:53:32.285Z,0.00
2023-04-30T03:54:05.351Z,0.00
2023-04-30T03:54:36.077Z,0.00
2023-04-30T03:55:09.267Z,0.00
2023-04-30T03:55:34.744Z,0.00
2023-04-30T03:55:56.360Z,0.00
2023-04-30T03:56:29.150Z,0.00
2023-04-30T03:57:00.259Z,0.00
2023-04-30T03:57:32.996Z,0.00
2023-04-30T03:58:04.225Z,0.00
2023-04-30T03:58:34.696Z,0.00
2023-04-30T03:58:53.168Z,0.00
2023-04-30T03:59:24.443Z,0.00
2023-04-30T03:59:41.428Z,0.00
2023-04-30T04:00:12.662Z,0.00
2023-04-30T04:00:35.384Z,0.00
2023-04-30T04:01:01.653Z,0.00
2023-04-30T04:01:32.728Z,0.00
2023-04-30T04:02:04.336Z,0.00
2023-04-30T04:02:35.939Z,0.00
2023-04-30T04:03:08.338Z,0.00
2023-04-30T04:03:34.734Z,0.00
2023-04-30T04:03:56.342Z,0.00
2023-04-30T04:04:29.157Z,0.00
2023-04-30T04:05:00.397Z,0.00
2023-04-30T04:05:33.858Z,0.36
2023-04-30T04:06:04.354Z,0.36
2023-04-30T04:06:34.828Z,1.22
2023-04-30T04:06:53.485Z,0.85
2023-04-30T04:07:24.236Z,0.36
2023-04-30T04:07:41.541Z,0.85
2023-04-30T04:08:12.255Z,0.36
2023-04-30T04:08:34.913Z,0.85
2023-04-30T04:09:00.421Z,0.85
2023-04-30T04:09:32.848Z,1.22
2023-04-30T04:10:04.570Z,1.22
2023-04-30T04:10:35.382Z,1.22
2023-04-30T04:10:52.631Z,1.71
2023-04-30T04:11:24.442Z,1.71
2023-04-30T04:11:42.483Z,1.71
2023-04-30T04:12:12.480Z,1.71
2023-04-30T04:12:34.880Z,0.85
2023-04-30T04:13:01.287Z,1.71
2023-04-30T04:13:32.785Z,2.08
2023-04-30T04:14:05.568Z,2.57
2023-04-30T04:14:34.887Z,2.57
2023-04-30T04:14:52.425Z,2.08
2023-04-30T04:15:26.148Z,2.08
2023-04-30T04:15:42.458Z,2.94
2023-04-30T04:16:12.425Z,2.94
2023-04-30T04:16:34.950Z,2.94
2023-04-30T04:17:01.238Z,3.43
2023-04-30T04:17:32.840Z,2.94
2023-04-30T04:18:04.527Z,3.43
2023-04-30T04:18:36.397Z,3.79
2023-04-30T04:19:08.338Z,3.43
2023-04-30T04:19:35.845Z,4.28
2023-04-30T04:19:56.533Z,4.77
2023-04-30T04:20:30.380Z,5.14
2023-04-30T04:21:00.454Z,4.28
2023-04-30T04:21:34.094Z,4.28
2023-04-30T04:22:07.171Z,4.77
2023-04-30T04:22:36.462Z,5.14
2023-04-30T04:23:08.393Z,5.14
2023-04-30T04:23:34.809Z,5.14
2023-04-30T04:23:56.426Z,5.99
2023-04-30T04:24:28.363Z,5.99
2023-04-30T04:25:01.668Z,6.85
2023-04-30T04:25:32.817Z,6.48
2023-04-30T04:26:05.526Z,7.34
2023-04-30T04:26:35.405Z,6.48
2023-04-30T04:26:52.467Z,6.85
2023-04-30T04:27:24.553Z,7.34
2023-04-30T04:27:41.579Z,7.34
2023-04-30T04:28:13.369Z,6.85
2023-04-30T04:28:35.453Z,8.56
2023-04-30T04:29:00.390Z,8.56
2023-04-30T04:29:33.366Z,8.56
2023-04-30T04:30:04.912Z,9.05
2023-04-30T04:30:34.850Z,8.56
2023-04-30T04:30:53.679Z,9.05
2023-04-30T04:31:24.517Z,9.54
2023-04-30T04:31:41.680Z,9.91
2023-04-30T04:32:13.305Z,9.91
2023-04-30T04:32:34.862Z,9.91
2023-04-30T04:33:00.712Z,10.77
2023-04-30T04:33:32.837Z,10.39
2023-04-30T04:34:04.788Z,11.25
2023-04-30T04:34:34.805Z,10.39
2023-04-30T04:34:52.442Z,12.11
2023-04-30T04:35:25.575Z,11.25
2023-04-30T04:35:42.713Z,11.62
2023-04-30T04:36:12.490Z,11.62
2023-04-30T04:36:35.348Z,12.48
2023-04-30T04:37:00.368Z,12.48
2023-04-30T04:37:33.585Z,12.11
2023-04-30T04:38:04.636Z,12.97
2023-04-30T04:38:35.887Z,12.97
2023-04-30T04:38:52.497Z,13.82
2023-04-30T04:39:24.464Z,13.82
2023-04-30T04:39:41.595Z,14.68
2023-04-30T04:40:13.432Z,13.82
2023-04-30T04:40:35.240Z,13.82
2023-04-30T04:41:00.511Z,15.17
2023-04-30T04:41:33.723Z,15.17
2023-04-30T04:42:04.533Z,15.53
2023-04-30T04:42:35.869Z,15.53
2023-04-30T04:42:52.424Z,16.02
2023-04-30T04:43:24.447Z,16.02
2023-04-30T04:43:41.664Z,16.39
2023-04-30T04:44:13.868Z,16.02
2023-04-30T04:44:34.942Z,16.39
2023-04-30T04:45:00.664Z,17.73
2023-04-30T04:45:33.265Z,17.73
2023-04-30T04:46:13.000Z,17.25
2023-04-30T04:46:39.562Z,17.73
2023-04-30T04:47:24.501Z,19.08
2023-04-30T04:47:41.653Z,19.08
2023-04-30T04:48:13.506Z,19.45
2023-04-30T04:48:35.312Z,19.08
2023-04-30T04:49:00.371Z,19.45
2023-04-30T04:49:32.465Z,19.45
2023-04-30T04:50:04.940Z,20.31
2023-04-30T04:50:34.835Z,20.31
2023-04-30T04:50:52.608Z,20.31
2023-04-30T04:51:25.264Z,20.80
2023-04-30T04:51:42.416Z,21.16
2023-04-30T04:52:12.462Z,20.80
2023-04-30T04:52:34.860Z,20.80
2023-04-30T04:53:00.514Z,22.02
2023-04-30T04:53:34.968Z,22.02
2023-04-30T04:54:04.491Z,22.51
2023-04-30T04:54:35.859Z,22.51
2023-04-30T04:54:52.341Z,22.87
2023-04-30T04:55:24.580Z,22.87
2023-04-30T04:55:41.633Z,22.87
2023-04-30T04:56:13.451Z,22.87
2023-04-30T04:56:35.368Z,23.36
2023-04-30T04:57:00.532Z,23.85
2023-04-30T04:57:33.756Z,24.71
2023-04-30T04:58:04.499Z,23.85
2023-04-30T04:58:35.990Z,25.07
2023-04-30T04:58:52.469Z,24.71
2023-04-30T04:59:24.457Z,25.56
2023-04-30T04:59:42.469Z,25.56
2023-04-30T05:00:12.995Z,25.56
2023-04-30T05:00:35.069Z,25.94
2023-04-30T05:01:01.392Z,26.79
2023-04-30T05:01:32.932Z,27.28
2023-04-30T05:02:04.479Z,26.79
2023-04-30T05:02:34.943Z,26.79
2023-04-30T05:02:52.575Z,26.42
2023-04-30T05:03:25.432Z,27.65
2023-04-30T05:03:42.785Z,27.65
2023-04-30T05:04:12.468Z,28.14
2023-04-30T05:04:34.865Z,28.14
2023-04-30T05:05:01.717Z,28.14
2023-04-30T05:05:33.038Z,28.14
2023-04-30T05:06:04.436Z,28.99
2023-04-30T05:06:34.844Z,27.65
2023-04-30T05:06:52.380Z,28.14
2023-04-30T05:07:26.346Z,28.63
2023-04-30T05:07:42.875Z,28.63
2023-04-30T05:08:12.518Z,29.85
2023-04-30T05:08:34.973Z,29.48
2023-04-30T05:09:00.424Z,29.48
2023-04-30T05:09:33.769Z,30.34
2023-04-30T05:10:07.866Z,30.70
2023-04-30T05:10:34.870Z,30.34
2023-04-30T05:10:53.517Z,31.19
2023-04-30T05:11:24.534Z,31.19
2023-04-30T05:11:41.772Z,31.56
2023-04-30T05:12:15.493Z,30.70
2023-04-30T05:12:34.832Z,31.19
2023-04-30T05:13:00.524Z,31.19
2023-04-30T05:13:33.541Z,32.05
2023-04-30T05:14:05.460Z,32.90
2023-04-30T05:14:35.366Z,32.05
2023-04-30T05:15:09.422Z,32.90
2023-04-30T05:15:35.243Z,32.42
2023-04-30T05:15:56.635Z,32.90
2023-04-30T05:16:28.373Z,32.90
2023-04-30T05:17:00.652Z,32.90
2023-04-30T05:17:33.949Z,33.76
2023-04-30T05:18:05.402Z,33.39
2023-04-30T05:18:34.888Z,33.39
2023-04-30T05:18:52.422Z,33.76
2023-04-30T05:19:25.358Z,33.39
2023-04-30T05:19:42.460Z,34.25
2023-04-30T05:20:13.667Z,35.11
2023-04-30T05:20:35.613Z,34.25
2023-04-30T05:21:01.640Z,34.62
2023-04-30T05:21:33.100Z,35.48
2023-04-30T05:22:04.964Z,35.48
2023-04-30T05:22:34.921Z,35.97
2023-04-30T05:22:52.481Z,35.97
2023-04-30T05:23:26.194Z,35.97
2023-04-30T05:23:43.366Z,36.33
2023-04-30T05:24:12.501Z,35.97
2023-04-30T05:24:34.987Z,36.33
2023-04-30T05:25:01.599Z,37.19
2023-04-30T05:25:32.926Z,36.33
2023-04-30T05:26:04.563Z,36.82
2023-04-30T05:26:34.930Z,37.19
2023-04-30T05:26:52.459Z,37.19
2023-04-30T05:27:25.422Z,37.19
2023-04-30T05:27:42.424Z,36.82
2023-04-30T05:28:12.358Z,37.19
2023-04-30T05:28:34.899Z,38.17
2023-04-30T05:29:01.605Z,37.68
2023-04-30T05:29:33.153Z,38.17
2023-04-30T05:30:05.384Z,38.53
2023-04-30T05:30:34.785Z,39.02
2023-04-30T05:30:52.635Z,39.39
2023-04-30T05:31:25.649Z,39.88
2023-04-30T05:31:44.631Z,40.24
2023-04-30T05:32:12.545Z,39.88
2023-04-30T05:32:34.886Z,39.88
2023-04-30T05:33:01.725Z,40.73
2023-04-30T05:33:33.707Z,41.10
2023-04-30T05:34:06.386Z,40.73
2023-04-30T05:34:34.843Z,40.73
2023-04-30T05:34:53.552Z,41.59
2023-04-30T05:35:24.702Z,41.10
2023-04-30T05:35:41.580Z,40.73
2023-04-30T05:36:13.599Z,41.59
2023-04-30T05:36:34.883Z,41.59
2023-04-30T05:37:00.393Z,41.59
2023-04-30T05:37:34.018Z,41.59
2023-04-30T05:38:04.542Z,41.96
2023-04-30T05:38:34.964Z,41.96
2023-04-30T05:38:52.502Z,42.45
2023-04-30T05:39:24.527Z,42.45
2023-04-30T05:39:56.650Z,42.45
2023-04-30T05:40:28.527Z,42.94
2023-04-30T05:41:00.536Z,43.31
2023-04-30T05:41:32.694Z,42.45
2023-04-30T05:42:05.020Z,42.94
2023-04-30T05:42:34.841Z,43.31
2023-04-30T05:42:53.186Z,43.31
2023-04-30T05:43:24.570Z,43.31
2023-04-30T05:43:41.898Z,43.31
2023-04-30T05:44:12.587Z,43.80
2023-04-30T05:44:34.914Z,43.80
2023-04-30T05:45:01.897Z,44.16
2023-04-30T05:45:32.639Z,43.80
2023-04-30T05:46:05.320Z,45.02
2023-04-30T05:46:35.650Z,44.16
2023-04-30T05:46:52.422Z,44.16
2023-04-30T05:47:25.417Z,45.51
2023-04-30T05:47:42.472Z,45.02
2023-04-30T05:48:12.434Z,44.65
2023-04-30T05:48:35.123Z,44.65
2023-04-30T05:49:00.441Z,45.51
2023-04-30T05:49:36.022Z,45.87
2023-04-30T05:50:08.986Z,45.51
2023-04-30T05:50:35.588Z,45.51
2023-04-30T05:51:09.041Z,46.36
2023-04-30T05:51:35.352Z,47.22
2023-04-30T05:51:56.390Z,47.71
2023-04-30T05:52:28.418Z,47.22
2023-04-30T05:53:00.429Z,47.22
2023-04-30T05:53:33.094Z,47.22
2023-04-30T05:54:04.553Z,46.73
2023-04-30T05:54:34.818Z,48.07
2023-04-30T05:54:52.454Z,47.71
2023-04-30T05:55:25.564Z,48.07
2023-04-30T05:55:42.421Z,48.93
2023-04-30T05:56:12.379Z,48.93
2023-04-30T05:56:34.863Z,48.93
2023-04-30T05:57:00.425Z,48.93
2023-04-30T05:57:33.508Z,48.93
2023-04-30T05:58:04.467Z,48.56
2023-04-30T05:58:34.820Z,49.42
2023-04-30T05:58:53.738Z,49.42
2023-04-30T05:59:24.331Z,49.42
2023-04-30T05:59:41.535Z,49.79
2023-04-30T06:00:14.118Z,49.79
2023-04-30T06:00:34.853Z,50.28
2023-04-30T06:01:00.949Z,50.65
2023-04-30T06:01:32.536Z,51.14
2023-04-30T06:02:04.583Z,50.65
2023-04-30T06:02:34.975Z,50.65
2023-04-30T06:02:52.524Z,51.14
2023-04-30T06:03:25.570Z,51.14
2023-04-30T06:03:44.729Z,51.50
2023-04-30T06:04:12.509Z,51.14
2023-04-30T06:04:35.726Z,51.50
2023-04-30T06:05:00.691Z,51.50
2023-04-30T06:05:33.531Z,51.50
2023-04-30T06:06:05.015Z,51.99
2023-04-30T06:06:35.002Z,52.48
2023-04-30T06:06:53.243Z,51.99
2023-04-30T06:07:24.557Z,52.48
2023-04-30T06:07:42.339Z,51.99
2023-04-30T06:08:12.417Z,52.85
2023-04-30T06:08:34.982Z,52.48
2023-04-30T06:09:01.498Z,53.70
2023-04-30T06:09:33.265Z,53.34
2023-04-30T06:10:07.005Z,54.19
2023-04-30T06:10:34.876Z,53.70
2023-04-30T06:10:52.603Z,54.56
2023-04-30T06:11:24.644Z,54.56
2023-04-30T06:11:42.480Z,55.05
2023-04-30T06:12:13.438Z,55.90
2023-04-30T06:12:35.332Z,55.41
2023-04-30T06:13:00.606Z,55.05